Latest Weather Observations for Golden Grove

IDW60801

Issued at 6:53 am WST Friday 19 August 2022 (issued every 10 minutes, with the page automatically refreshed every 10 minutes)

About weather observations | Map of weather stations | Latest weather observations for WA | Other Formats
Station Details ID: 507017 Name: GOLDEN GROVE Lat: -28.76 Lon: 116.97 Height: 356.3 m
Data from the previous 72 hours. | See also: Recent months for locations in Western Australia
Date/Time
WST
Temp
°C
App
Temp
°C
Dew
Point
°C
Rel
Hum
%
Delta-T
°C
Wind Press
QNH
hPa
Press
MSL
hPa
Rain since
9am
mm
Dir  Spd
km/h
Gust
km/h
Spd
kts
Gust
kts
19/06:30am 5.0 1.5 3.5 90 0.6 SE 11 13 6 7 1028.6 1028.4 0.0
19/06:00am 4.9 1.8 3.6 91 0.5 SE 9 11 5 6 1028.5 1028.3 0.0
19/05:30am 4.4 1.3 3.5 94 0.4 SE 9 11 5 6 1028.5 1028.3 0.0
19/05:00am 5.0 3.6 3.5 90 0.6 CALM 0 0 0 0 1028.2 1028.0 0.0
19/04:30am 5.7 3.0 3.7 87 0.9 SE 7 11 4 6 1028.2 1028.0 0.0
19/04:00am 5.7 2.3 3.9 88 0.8 SE 11 13 6 7 1028.2 1028.0 0.0
19/03:30am 5.8 2.8 4.0 88 0.8 SE 9 11 5 6 1028.2 1028.0 0.0
19/03:00am 6.3 3.3 4.1 86 1.0 ESE 9 11 5 6 1028.1 1027.9 0.0
19/02:30am 7.0 4.0 4.3 83 1.2 ESE 9 13 5 7 1028.2 1028.0 0.0
19/02:00am 7.2 3.5 4.3 82 1.3 SE 13 17 7 9 1027.9 1027.8 0.0
19/01:30am 6.9 3.6 4.4 84 1.1 SE 11 15 6 8 1028.2 1028.0 0.0
19/01:00am 7.1 4.2 4.4 83 1.2 ESE 9 13 5 7 1028.4 1028.2 0.0
19/12:30am 7.7 5.3 4.3 79 1.5 ESE 6 11 3 6 1028.5 1028.3 0.0
19/12:00am 8.4 4.2 4.0 74 1.9 ESE 15 17 8 9 1028.3 1028.1 0.0
 
Date/Time
WST
Temp
°C
App
Temp
°C
Dew
Point
°C
Rel
Hum
%
Delta-T
°C
Wind Press
QNH
hPa
Press
MSL
hPa
Rain since
9am
mm
Dir  Spd
km/h
Gust
km/h
Spd
kts
Gust
kts
18/11:30pm 8.7 4.9 4.1 73 2.1 SE 13 17 7 9 1028.5 1028.3 0.0
18/11:00pm 9.0 5.6 4.0 71 2.2 SE 11 15 6 8 1028.6 1028.4 0.0
18/10:30pm 9.6 5.9 4.2 69 2.4 SE 13 15 7 8 1028.6 1028.4 0.0
18/10:00pm 9.7 6.3 4.1 68 2.5 SE 11 13 6 7 1028.7 1028.5 0.0
18/09:30pm 9.8 6.5 4.6 70 2.4 SSE 11 13 6 7 1028.6 1028.4 0.0
18/09:00pm 10.2 6.9 4.6 68 2.5 SSE 11 15 6 8 1028.4 1028.2 0.0
18/08:30pm 10.7 7.4 4.6 66 2.8 SSE 11 15 6 8 1028.2 1028.0 0.0
18/08:00pm 10.8 7.5 4.5 65 2.9 SSE 11 13 6 7 1028.1 1027.9 0.0
18/07:30pm 11.5 8.1 4.0 60 3.4 SSE 11 15 6 8 1027.8 1027.7 0.0
18/07:00pm 11.6 8.3 4.3 61 3.3 SSE 11 13 6 7 1027.2 1027.1 0.0
18/06:30pm 11.9 8.7 4.9 62 3.3 SSE 11 11 6 6 1027.0 1026.9 0.0
18/06:00pm 13.0 10.6 5.2 59 3.7 SE 7 9 4 5 1026.9 1026.8 0.0
18/05:30pm 14.2 10.8 3.9 50 4.8 SE 11 17 6 9 1026.6 1026.4 0.0
18/05:00pm 14.9 11.2 4.3 49 5.0 SE 13 22 7 12 1026.4 1026.2 0.0
18/04:30pm 15.4 11.1 3.5 45 5.5 ESE 15 22 8 12 1026.2 1026.0 0.0
18/04:00pm 15.5 11.2 3.0 43 5.7 ESE 15 24 8 13 1026.2 1026.0 0.0
18/03:30pm 15.3 10.2 3.1 44 5.6 SE 19 28 10 15 1026.1 1025.9 0.0
18/03:00pm 15.3 10.6 3.1 44 5.6 ESE 17 24 9 13 1026.0 1025.8 0.0
18/02:30pm 15.0 10.6 5.0 51 4.8 ESE 17 28 9 15 1025.9 1025.7 0.0
18/02:00pm 14.8 10.1 5.1 52 4.6 E 19 28 10 15 1025.9 1025.7 0.0
18/01:30pm 14.2 9.2 4.8 53 4.5 ESE 20 30 11 16 1026.0 1025.8 0.0
18/01:00pm 13.6 8.9 5.3 57 3.9 ESE 19 26 10 14 1026.5 1026.3 0.0
18/12:30pm 13.3 9.1 5.5 59 3.7 E 17 24 9 13 1026.9 1026.8 0.0
18/12:00pm 13.1 8.5 5.8 61 3.5 ESE 19 28 10 15 1027.2 1027.1 0.0
18/11:30am 12.5 8.5 6.8 68 2.8 ESE 17 26 9 14 1027.6 1027.5 0.0
18/11:00am 12.2 7.6 6.3 67 2.8 E 20 26 11 14 1027.8 1027.7 0.0
18/10:30am 11.2 7.2 6.5 73 2.3 ESE 17 26 9 14 1027.9 1027.8 0.0
18/10:00am 10.4 7.5 6.7 78 1.8 ESE 11 19 6 10 1028.1 1027.9 0.0
18/09:30am 9.4 5.4 6.7 83 1.3 E 17 20 9 11 1027.9 1027.8 0.0
18/09:00am 8.5 4.5 6.6 88 0.9 E 17 20 9 11 1027.7 1027.6 4.6
18/08:59am 8.5 4.5 6.6 88 0.9 E 17 20 9 11 1027.7 1027.6 4.6
18/08:30am 7.8 4.5 6.6 92 0.6 E 13 24 7 13 1027.4 1027.3 4.6
18/08:00am 7.1 3.8 6.5 96 0.3 ESE 13 19 7 10 1027.1 1027.0 4.6
18/07:30am 6.9 4.8 6.5 97 0.2 ESE 7 13 4 7 1026.3 1026.1 4.6
18/07:00am 6.7 4.1 6.3 97 0.2 ESE 9 13 5 7 1025.6 1025.4 4.6
18/06:30am 6.6 4.0 6.2 97 0.2 ESE 9 9 5 5 1025.3 1025.1 4.6
18/06:00am 6.7 4.5 6.3 97 0.2 ESE 7 11 4 6 1025.1 1024.9 4.6
18/05:30am 6.8 4.3 6.4 97 0.2 SE 9 13 5 7 1024.4 1024.3 4.6
18/05:00am 6.9 3.2 6.5 97 0.2 SSE 15 20 8 11 1023.9 1023.7 4.6
18/04:37am 6.1 3.8 5.8 98 0.1 WSW 7 9 4 5 1023.6 1023.4 4.6
18/04:30am 6.0 3.9 5.6 97 0.2 WSW 6 7 3 4 1023.5 1023.3 4.6
18/04:00am 6.3 3.7 6.0 98 0.1 WSW 9 9 5 5 1023.2 1023.0 4.6
18/03:30am 5.9 4.9 5.5 97 0.2 CALM 0 4 0 2 1023.0 1022.8 4.4
18/03:00am 6.9 5.0 6.5 97 0.2 WSW 6 7 3 4 1022.6 1022.4 4.4
18/02:30am 6.7 4.5 6.1 96 0.3 WSW 7 9 4 5 1022.5 1022.3 4.4
18/02:00am 7.3 6.2 6.7 96 0.3 WSW 2 6 1 3 1022.6 1022.4 4.4
18/01:30am 7.8 6.0 7.2 96 0.3 WSW 6 9 3 5 1022.7 1022.5 4.4
18/01:00am 7.7 5.7 7.1 96 0.3 WSW 7 9 4 5 1022.4 1022.2 4.4
18/12:30am 7.9 6.1 7.3 96 0.3 WSW 6 9 3 5 1021.8 1021.6 4.4
18/12:00am 8.0 6.6 7.4 96 0.3 SW 4 7 2 4 1021.7 1021.5 4.4
 
Date/Time
WST
Temp
°C
App
Temp
°C
Dew
Point
°C
Rel
Hum
%
Delta-T
°C
Wind Press
QNH
hPa
Press
MSL
hPa
Rain since
9am
mm
Dir  Spd
km/h
Gust
km/h
Spd
kts
Gust
kts
17/11:30pm 8.6 6.4 7.8 95 0.4 SW 9 11 5 6 1021.7 1021.5 4.4
17/11:00pm 8.9 6.4 8.1 95 0.4 SW 11 15 6 8 1021.5 1021.3 4.4
17/10:30pm 9.4 7.8 8.6 95 0.4 WSW 7 11 4 6 1021.1 1020.9 4.4
17/10:00pm 9.8 7.5 9.0 95 0.4 WSW 11 15 6 8 1020.9 1020.7 4.4
17/09:30pm 10.1 7.5 9.2 94 0.5 WSW 13 17 7 9 1020.6 1020.4 4.4
17/09:00pm 10.3 8.1 9.4 94 0.5 WSW 11 20 6 11 1020.4 1020.2 4.4
17/08:56pm 10.3 8.1 9.5 95 0.4 WSW 11 19 6 10 1020.2 1020.0 4.4
17/08:42pm 10.3 7.7 9.4 94 0.5 WSW 13 20 7 11 1020.0 1019.8 4.4
17/08:30pm 10.4 7.1 9.5 94 0.5 WSW 17 28 9 15 1019.8 1019.6 4.2
17/08:00pm 10.3 6.3 9.2 93 0.6 WSW 20 33 11 18 1019.4 1019.1 4.2
17/07:59pm 10.3 6.3 9.2 93 0.6 WSW 20 33 11 18 1019.4 1019.1 4.2
17/07:48pm 10.3 4.8 9.1 92 0.6 SW 28 46 15 25 1019.2 1018.9 4.2
17/07:30pm 11.0 4.8 9.4 90 0.8 SW 32 56 17 30 1019.0 1018.8 4.2
17/07:26pm 11.4 5.3 9.7 89 0.9 WSW 32 56 17 30 1018.8 1018.6 4.2
17/07:24pm 11.8 6.2 10.2 90 0.8 WSW 30 48 16 26 1018.8 1018.6 4.0
17/07:23pm 11.9 6.3 10.1 89 0.9 WSW 30 48 16 26 1018.6 1018.4 4.0
17/07:22pm 11.9 6.7 10.3 90 0.8 WSW 28 43 15 23 1018.7 1018.5 4.0
17/07:04pm 12.0 7.2 10.4 90 0.8 WSW 26 41 14 22 1018.2 1018.0 4.0
17/07:00pm 12.3 7.9 10.4 88 1.0 WSW 24 37 13 20 1018.2 1018.0 4.0
17/06:37pm 12.8 7.3 10.7 87 1.1 WSW 30 52 16 28 1017.6 1017.4 4.0
17/06:30pm 12.8 9.0 11.0 89 1.0 W 22 39 12 21 1017.3 1017.1 4.0
17/06:00pm 12.8 9.7 11.5 92 0.7 W 19 28 10 15 1016.6 1016.3 4.0
17/05:30pm 12.9 8.8 11.5 91 0.8 W 24 37 13 20 1015.9 1015.7 4.0
17/05:28pm 12.9 8.4 11.5 91 0.8 W 26 37 14 20 1015.9 1015.7 4.0
17/05:16pm 13.0 7.7 11.4 90 0.9 W 30 43 16 23 1015.8 1015.6 4.0
17/05:00pm 13.3 7.9 12.2 93 0.6 W 32 46 17 25 1015.7 1015.5 4.0
17/04:57pm 13.4 8.0 12.1 92 0.7 W 32 46 17 25 1015.5 1015.3 3.8
17/04:54pm 13.6 9.0 12.3 92 0.7 W 28 46 15 25 1015.5 1015.3 3.8
17/04:49pm 13.6 9.1 12.5 93 0.6 W 28 46 15 25 1015.3 1015.1 3.8
17/04:48pm 13.6 9.1 12.5 93 0.6 W 28 46 15 25 1015.3 1015.1 3.8
17/04:43pm 13.6 9.1 12.5 93 0.6 W 28 46 15 25 1015.2 1015.0 3.8
17/04:38pm 13.6 9.4 12.5 93 0.6 W 26 39 14 21 1015.2 1015.0 3.8
17/04:34pm 13.7 8.8 12.6 93 0.6 WSW 30 46 16 25 1015.0 1014.8 3.8
17/04:30pm 13.8 8.3 12.4 91 0.8 W 33 46 18 25 1015.1 1014.9 3.4
17/04:16pm 14.1 9.3 12.8 92 0.7 W 30 43 16 23 1014.8 1014.6 3.4
17/04:15pm 14.2 9.4 12.9 92 0.7 W 30 43 16 23 1014.8 1014.6 3.4
17/04:03pm 14.4 10.0 12.8 90 0.9 W 28 43 15 23 1014.6 1014.3 3.0
17/04:00pm 14.4 10.1 13.1 92 0.7 W 28 41 15 22 1014.6 1014.3 3.0
17/03:39pm 14.9 9.4 12.0 83 1.6 WNW 32 52 17 28 1014.6 1014.3 2.2
17/03:36pm 15.6 10.8 11.8 78 2.1 WNW 28 46 15 25 1014.4 1014.1 2.0
17/03:30pm 16.1 10.9 11.7 75 2.4 WNW 30 44 16 24 1014.2 1013.9 2.0
17/03:00pm 15.9 10.0 11.3 74 2.5 WNW 33 52 18 28 1014.4 1014.1 2.0
17/02:56pm 15.8 10.5 11.2 74 2.5 WNW 30 52 16 28 1014.4 1014.1 2.0
17/02:30pm 15.0 10.1 12.5 85 1.4 W 30 44 16 24 1014.5 1014.2 2.0
17/02:19pm 14.9 11.4 13.4 91 0.8 W 24 33 13 18 1014.6 1014.3 2.0
17/02:00pm 13.5 8.5 12.2 92 0.7 W 30 44 16 24 1015.0 1014.8 2.0
17/01:51pm 14.3 8.8 11.8 85 1.4 WSW 32 48 17 26 1014.9 1014.7 0.6
17/01:46pm 15.3 10.5 11.5 78 2.1 WSW 28 48 15 26 1014.7 1014.5 0.0
17/01:30pm 16.4 10.5 10.3 67 3.3 W 32 43 17 23 1014.2 1013.9 0.0
17/01:11pm 17.2 11.0 9.4 60 4.1 WNW 32 50 17 27 1014.3 1014.0 0.0
17/01:00pm 16.6 10.8 10.7 68 3.2 WNW 32 46 17 25 1014.4 1014.1 0.0
17/12:42pm 16.1 10.2 11.1 72 2.7 WNW 33 59 18 32 1014.9 1014.7 0.0
17/12:30pm 15.2 9.8 11.0 76 2.3 WNW 30 44 16 24 1015.1 1014.9 0.0
17/12:26pm 14.4 8.7 11.2 81 1.7 WNW 32 50 17 27 1015.2 1015.0 0.0
17/12:00pm 16.8 9.9 9.0 60 4.1 WNW 35 48 19 26 1015.2 1015.0 0.0
17/11:30am 16.6 10.3 9.8 64 3.6 WNW 33 46 18 25 1015.8 1015.6 0.0
17/11:00am 16.3 10.6 9.7 65 3.5 W 30 44 16 24 1016.2 1015.9 0.0
17/10:30am 16.0 10.3 9.7 66 3.3 W 30 41 16 22 1016.6 1016.3 0.0
17/10:00am 15.2 10.0 10.2 72 2.7 WNW 28 41 15 22 1016.6 1016.3 0.0
17/09:30am 14.5 9.8 10.5 77 2.1 WNW 26 39 14 21 1016.5 1016.2 0.0
17/09:00am 13.6 8.8 10.2 80 1.8 WNW 26 39 14 21 1016.3 1016.0 9.8
17/08:30am 12.6 7.9 10.5 87 1.1 WNW 26 35 14 19 1016.2 1015.9 9.8
17/08:00am 11.8 7.7 10.0 89 0.9 NW 22 33 12 18 1015.6 1015.4 9.8
17/07:30am 10.9 7.3 9.8 93 0.6 NW 19 26 10 14 1015.4 1015.2 9.8
17/07:00am 10.5 6.6 9.6 94 0.5 NW 20 26 11 14 1015.1 1014.9 9.8
17/06:30am 10.5 6.6 9.4 93 0.6 NW 20 24 11 13 1014.6 1014.3 9.8
17/06:00am 10.5 6.8 9.6 94 0.5 WNW 19 26 10 14 1014.3 1014.0 9.8
17/05:30am 10.7 6.8 9.6 93 0.6 NW 20 28 11 15 1013.9 1013.6 9.8
17/05:00am 10.9 6.7 9.7 92 0.6 WNW 22 30 12 16 1013.8 1013.5 9.6
17/04:30am 11.1 7.0 10.0 93 0.6 WNW 22 30 12 16 1013.5 1013.2 9.6
17/04:00am 11.1 7.6 10.2 94 0.5 WNW 19 26 10 14 1013.3 1013.0 9.6
17/03:30am 11.4 7.8 10.6 95 0.4 WNW 20 28 11 15 1013.0 1012.8 9.6
17/03:19am 11.6 7.3 10.7 94 0.5 WNW 24 33 13 18 1012.9 1012.7 9.6
17/03:04am 11.6 8.1 10.8 95 0.4 WNW 20 24 11 13 1013.1 1012.9 9.6
17/03:00am 11.7 8.2 10.9 95 0.4 WNW 20 24 11 13 1013.1 1012.9 9.6
17/02:54am 11.6 8.0 10.7 94 0.5 WNW 20 26 11 14 1013.0 1012.8 9.6
17/02:36am 11.8 8.5 10.9 94 0.5 NW 19 26 10 14 1013.0 1012.8 9.4
17/02:30am 11.8 8.4 10.7 93 0.6 NW 19 26 10 14 1012.9 1012.7 9.2
17/02:00am 11.6 8.0 10.5 93 0.6 NW 20 26 11 14 1013.0 1012.8 9.0
17/01:30am 11.4 8.3 10.3 93 0.6 NW 17 20 9 11 1013.1 1012.9 9.0
17/01:00am 11.6 8.5 10.3 92 0.7 NW 17 20 9 11 1013.0 1012.8 9.0
17/12:30am 11.8 8.8 10.7 93 0.6 NW 17 24 9 13 1013.0 1012.8 9.0
17/12:00am 12.2 9.0 11.1 93 0.6 NW 19 24 10 13 1013.3 1013.0 9.0
 
Date/Time
WST
Temp
°C
App
Temp
°C
Dew
Point
°C
Rel
Hum
%
Delta-T
°C
Wind Press
QNH
hPa
Press
MSL
hPa
Rain since
9am
mm
Dir  Spd
km/h
Gust
km/h
Spd
kts
Gust
kts
16/11:30pm 12.3 9.5 11.5 95 0.4 NW 17 20 9 11 1013.4 1013.1 9.0
16/11:00pm 12.5 9.8 11.6 94 0.5 NW 17 20 9 11 1013.3 1013.0 9.0
16/10:30pm 12.8 10.6 12.0 95 0.4 NW 15 19 8 10 1013.4 1013.1 9.0
16/10:00pm 13.1 11.0 12.5 96 0.3 WNW 15 19 8 10 1013.4 1013.1 9.0
16/09:30pm 13.1 10.6 12.3 95 0.4 WNW 17 20 9 11 1013.6 1013.3 9.0
16/09:00pm 13.2 10.7 12.4 95 0.4 NW 17 20 9 11 1013.6 1013.3 9.0
16/08:30pm 13.4 11.0 12.6 95 0.4 NW 17 20 9 11 1013.4 1013.1 9.0
16/08:00pm 13.4 11.4 12.8 96 0.3 WNW 15 20 8 11 1013.4 1013.1 8.8
16/07:30pm 13.2 11.6 12.7 97 0.3 WNW 13 17 7 9 1013.1 1012.9 8.8
16/07:14pm 13.0 10.1 12.4 96 0.3 W 19 26 10 14 1013.4 1013.1 8.8
16/07:00pm 12.8 9.6 11.9 94 0.5 W 20 33 11 18 1012.8 1012.6 8.8
16/06:30pm 13.5 11.1 12.7 95 0.4 W 17 26 9 14 1012.6 1012.4 8.4
16/06:22pm 13.6 10.9 12.8 95 0.4 W 19 30 10 16 1012.6 1012.4 8.4
16/06:00pm 13.6 10.8 12.7 94 0.5 W 19 24 10 13 1012.2 1011.9 8.4
16/05:30pm 13.4 10.6 12.6 95 0.4 W 19 24 10 13 1012.0 1011.7 8.2
16/05:17pm 13.4 10.6 12.5 94 0.5 W 19 28 10 15 1011.8 1011.5 8.0
16/05:13pm 13.5 10.5 12.6 94 0.5 W 20 28 11 15 1011.8 1011.5 8.0
16/05:00pm 13.5 10.5 12.7 95 0.4 W 20 32 11 17 1011.7 1011.4 7.8
16/04:39pm 14.2 11.5 13.4 95 0.5 W 20 30 11 16 1011.7 1011.4 6.4
16/04:32pm 14.3 11.6 13.5 95 0.5 W 20 32 11 17 1011.3 1011.0 6.2
16/04:30pm 14.3 11.2 13.5 95 0.5 W 22 33 12 18 1011.4 1011.1 6.0
16/04:00pm 14.5 11.0 13.5 94 0.6 W 24 35 13 19 1010.9 1010.6 5.4
16/03:57pm 14.6 11.2 13.6 94 0.6 W 24 33 13 18 1010.9 1010.6 5.4
16/03:56pm 14.6 11.2 13.6 94 0.6 W 24 33 13 18 1010.9 1010.6 5.4
16/03:36pm 14.8 10.7 13.7 93 0.6 W 28 39 15 21 1011.2 1010.9 4.8
16/03:34pm 14.9 11.2 13.8 93 0.6 W 26 39 14 21 1010.9 1010.6 4.8
16/03:30pm 15.0 11.7 14.0 94 0.6 W 24 39 13 21 1011.0 1010.7 4.8
16/03:17pm 15.1 12.3 14.3 95 0.5 WNW 22 32 12 17 1010.5 1010.2 4.4
16/03:00pm 15.1 12.3 14.3 95 0.5 WNW 22 35 12 19 1010.6 1010.3 4.0
16/02:59pm 15.2 12.4 14.4 95 0.5 WNW 22 35 12 19 1010.7 1010.4 4.0
16/02:30pm 14.9 12.6 14.1 95 0.5 WNW 19 32 10 17 1010.4 1010.1 3.2
16/02:00pm 14.7 12.7 13.9 95 0.5 WNW 17 22 9 12 1010.4 1010.1 2.4
16/01:48pm 14.5 11.8 13.5 94 0.6 WNW 20 30 11 16 1010.3 1010.0 2.4
16/01:43pm 14.6 11.5 13.5 93 0.6 W 22 30 12 16 1010.4 1010.1 2.4
16/01:30pm 14.8 11.7 13.5 92 0.7 WNW 22 32 12 17 1010.5 1010.2 2.2
16/01:23pm 14.9 11.4 13.3 90 0.9 WNW 24 33 13 18 1010.7 1010.4 2.0
16/01:00pm 15.2 11.8 13.7 91 0.9 W 24 35 13 19 1010.7 1010.4 1.8
16/12:37pm 15.3 12.1 14.2 93 0.6 WNW 24 32 13 17 1010.8 1010.5 1.8
16/12:30pm 15.4 11.5 14.4 94 0.6 WNW 28 39 15 21 1010.8 1010.5 1.8
16/12:00pm 15.8 12.0 14.8 94 0.6 WNW 28 39 15 21 1011.1 1010.8 1.4
16/11:53am 16.0 13.1 15.0 94 0.6 WNW 24 35 13 19 1011.1 1010.8 1.4
16/11:46am 16.2 14.1 15.1 93 0.6 WNW 20 30 11 16 1011.2 1010.9 1.2
16/11:41am 16.4 13.9 15.1 92 0.8 WNW 22 32 12 17 1011.3 1011.0 0.8
16/11:30am 16.4 14.3 15.3 93 0.6 WNW 20 28 11 15 1011.1 1010.8 0.8
16/11:04am 16.2 14.7 15.2 94 0.6 W 17 26 9 14 1011.2 1010.9 0.8
16/11:00am 16.2 14.3 15.2 94 0.6 W 19 28 10 15 1011.2 1010.9 0.8
16/10:46am 16.2 14.0 14.9 92 0.8 W 20 30 11 16 1011.3 1011.0 0.8
16/10:30am 16.3 14.4 15.2 93 0.6 WNW 19 28 10 15 1011.6 1011.3 0.6
16/10:22am 16.2 14.1 15.2 94 0.6 W 20 28 11 15 1011.7 1011.4 0.6
16/10:00am 16.1 14.0 15.1 94 0.6 WNW 20 28 11 15 1011.5 1011.2 0.6
16/09:30am 16.1 13.7 15.3 95 0.5 W 22 32 12 17 1011.5 1011.2 0.6
16/09:16am 16.2 13.3 15.2 94 0.6 W 24 33 13 18 1011.6 1011.3 0.4
16/09:15am 16.2 13.3 15.2 94 0.6 W 24 35 13 19 1011.5 1011.2 0.2
16/09:00am 16.3 13.6 15.5 95 0.5 W 24 33 13 18 1011.5 1011.2 13.0
16/08:57am 16.3 13.5 15.3 94 0.6 W 24 33 13 18 1011.3 1011.0 12.8
16/08:47am 16.5 13.0 15.4 93 0.7 W 28 43 15 23 1011.0 1010.7 12.6
16/08:30am 16.7 13.4 16.1 96 0.4 WNW 28 37 15 20 1010.6 1010.3 12.2
16/08:24am 16.8 13.6 16.2 96 0.4 WNW 28 37 15 20 1010.9 1010.6 11.8
16/08:12am 17.0 13.8 16.4 96 0.4 WNW 28 39 15 21 1010.8 1010.5 11.0
16/08:00am 17.1 14.0 16.5 96 0.4 NW 28 41 15 22 1010.3 1010.0 10.6
16/07:30am 17.3 15.8 16.7 96 0.4 NW 20 26 11 14 1009.7 1009.4 9.4
16/07:26am 17.3 15.8 16.7 96 0.4 NW 20 26 11 14 1009.6 1009.3 9.0
16/07:17am 17.3 16.3 16.7 96 0.4 NW 17 24 9 13 1009.4 1009.1 8.4
16/07:07am 17.4 16.4 16.6 95 0.5 NW 17 26 9 14 1009.1 1008.8 8.2
16/07:00am 17.4 16.4 16.6 95 0.5 NW 17 26 9 14 1008.8 1008.5 8.2

Other formats

Comma delimited format used in spreadsheet applications
http://www.bom.gov.au/fwo/IDW60801/IDW60801.99401.axf

JavaScript Object Notation format (JSON) in row-major order
http://www.bom.gov.au/fwo/IDW60801/IDW60801.99401.json

Data quality

Most of these data are generated automatically and are frequently updated. Quality checks on data are not normally performed. It is possible for incorrect values to appear. Refer to information at About Latest Weather Observations and please check the disclaimer before using these data.